Time;durP1;ratioP1;P1;durP2;ratioP2;P2;SDS_P1;SDS_P2;PMS_P1;PMS_P2;Temp;Humidity;BMP_temperature;BMP_pressure;BME280_temperature;BME280_humidity;BME280_pressure;Samples;Min_cycle;Max_cycle;Signal;HPM_P1;HPM_P2
2023/03/19 00:00:30;;;;;;;6.22;4.15;;;;;;;18.51;44.06;101381.09;5056107;28;20507;-55
2023/03/19 00:02:58;;;;;;;5.30;4.55;;;;;;;18.50;44.06;101376.66;5056006;28;20041;-55
2023/03/19 00:05:26;;;;;;;5.55;4.20;;;;;;;18.50;44.06;101374.00;5055959;28;20056;-47
2023/03/19 00:07:53;;;;;;;8.63;4.85;;;;;;;18.50;44.13;101376.66;5055695;28;20048;-49
2023/03/19 00:10:20;;;;;;;6.07;4.55;;;;;;;18.49;44.14;101377.66;5055770;28;20364;-48
2023/03/19 00:12:47;;;;;;;5.75;4.70;;;;;;;18.50;44.10;101376.66;5055538;28;20048;-49
2023/03/19 00:15:15;;;;;;;7.70;4.47;;;;;;;18.49;44.01;101385.69;5055758;28;20484;-56
2023/03/19 00:17:42;;;;;;;6.13;4.68;;;;;;;18.50;44.24;101386.53;5055678;28;20487;-55
2023/03/19 00:20:11;;;;;;;9.07;5.22;;;;;;;18.49;44.21;101390.19;5055641;28;20049;-57
2023/03/19 00:22:38;;;;;;;6.15;4.65;;;;;;;18.49;44.26;101387.53;5055458;28;20048;-56
2023/03/19 00:25:08;;;;;;;7.13;4.20;;;;;;;18.49;44.24;101388.38;5055544;28;20468;-56
2023/03/19 00:27:37;;;;;;;6.55;4.15;;;;;;;18.49;44.25;101393.72;5055433;28;20045;-57
2023/03/19 00:30:06;;;;;;;5.80;4.18;;;;;;;18.49;44.31;101398.25;5055415;28;20045;-57
2023/03/19 00:32:35;;;;;;;5.88;4.30;;;;;;;18.50;44.36;101378.50;5055387;28;20087;-57
2023/03/19 00:35:05;;;;;;;5.15;3.97;;;;;;;18.48;44.23;101369.72;5054299;28;20060;-58
2023/03/19 00:37:34;;;;;;;7.60;5.03;;;;;;;18.49;44.30;101371.44;5055181;28;20487;-57
2023/03/19 00:40:03;;;;;;;6.45;3.85;;;;;;;18.50;44.36;101375.81;5054214;28;20053;-58
2023/03/19 00:42:31;;;;;;;7.28;4.65;;;;;;;18.49;44.48;101383.00;5054165;28;20052;-57
2023/03/19 00:44:59;;;;;;;8.65;4.55;;;;;;;18.49;44.29;101395.56;5055141;28;20060;-50
2023/03/19 00:47:26;;;;;;;4.95;3.95;;;;;;;18.49;44.40;101393.72;5055093;28;20044;-48
2023/03/19 00:49:54;;;;;;;7.10;4.60;;;;;;;18.49;44.30;101393.72;5054956;28;20051;-48
2023/03/19 00:52:21;;;;;;;6.55;4.53;;;;;;;18.49;44.15;101388.38;5053468;28;20060;-47
2023/03/19 00:54:49;;;;;;;9.35;4.80;;;;;;;18.49;44.36;101395.56;5055274;28;20049;-58
2023/03/19 00:57:18;;;;;;;6.10;4.45;;;;;;;18.49;44.38;101392.88;5054897;28;20051;-57
2023/03/19 00:59:46;;;;;;;6.47;4.38;;;;;;;18.49;44.35;101384.84;5054058;28;20060;-58
2023/03/19 01:02:13;;;;;;;5.75;4.50;;;;;;;18.49;44.47;101382.16;5053891;28;20499;-57
2023/03/19 01:04:40;;;;;;;5.63;4.38;;;;;;;18.48;44.53;101381.31;5053805;28;20407;-47
2023/03/19 01:07:08;;;;;;;6.45;4.70;;;;;;;18.48;44.49;101381.31;5053582;28;20057;-50
2023/03/19 01:09:35;;;;;;;5.45;4.90;;;;;;;18.48;44.41;101380.47;5053647;28;20052;-46
2023/03/19 01:12:03;;;;;;;5.88;4.45;;;;;;;18.48;44.37;101369.72;5054559;28;20514;-48
2023/03/19 01:14:32;;;;;;;5.95;4.65;;;;;;;18.47;44.33;101360.84;5053137;28;20496;-49
2023/03/19 01:16:59;;;;;;;5.47;4.43;;;;;;;18.47;44.34;101357.28;5054832;28;20055;-49
2023/03/19 01:19:28;;;;;;;6.28;4.55;;;;;;;18.47;44.31;101358.16;5053423;28;20057;-51
2023/03/19 01:21:56;;;;;;;5.13;3.90;;;;;;;18.47;44.42;101357.28;5054265;28;20045;-47
2023/03/19 01:24:27;;;;;;;6.40;4.40;;;;;;;18.46;44.33;101344.84;5053690;28;20048;-47
2023/03/19 01:26:55;;;;;;;6.15;4.72;;;;;;;18.46;44.27;101344.84;5053294;28;20407;-47
2023/03/19 01:29:29;;;;;;;6.22;4.40;;;;;;;18.47;44.26;101341.19;5054380;28;20053;-49
2023/03/19 01:31:59;;;;;;;5.88;4.45;;;;;;;18.46;44.52;101347.53;5054150;28;20036;-48
2023/03/19 01:34:32;;;;;;;;;;;;;;;18.45;44.25;101351.19;5061374;28;20167;-58
2023/03/19 01:37:11;;;;;;;7.13;4.85;;;;;;;18.46;44.31;101351.06;5054294;28;19921;-57
2023/03/19 01:39:40;;;;;;;6.18;4.18;;;;;;;18.45;44.21;101346.66;5052965;28;20060;-57
2023/03/19 01:42:12;;;;;;;7.43;4.72;;;;;;;18.46;43.95;101342.16;5053162;28;20053;-58
2023/03/19 01:45:03;;;;;;;5.05;4.15;;;;;;;18.45;44.39;101340.47;5056650;28;20060;-49
2023/03/19 01:48:00;;;;;;;7.45;5.53;;;;;;;18.45;44.42;101348.50;5048823;28;20060;-48
2023/03/19 01:50:46;;;;;;;5.47;4.20;;;;;;;18.44;44.19;101347.66;5052950;28;20376;-49
2023/03/19 01:53:27;;;;;;;7.35;5.00;;;;;;;18.44;44.29;101349.47;5052550;28;20060;-46
2023/03/19 01:56:06;;;;;;;6.82;4.88;;;;;;;18.44;44.32;101362.88;5053055;28;20384;-48
2023/03/19 01:58:59;;;;;;;7.07;4.47;;;;;;;18.44;44.42;101365.56;5052644;28;20056;-49
2023/03/19 02:01:53;;;;;;;5.85;4.53;;;;;;;18.44;44.31;101369.09;5052228;28;20052;-48
2023/03/19 02:04:24;;;;;;;6.47;4.93;;;;;;;18.44;44.38;101354.84;5052468;28;20056;-57
2023/03/19 02:06:55;;;;;;;6.03;4.63;;;;;;;18.43;44.27;101367.41;5052420;28;20394;-56
2023/03/19 02:09:24;;;;;;;6.22;4.95;;;;;;;18.44;44.41;101362.88;5053640;28;20040;-56
2023/03/19 02:11:55;;;;;;;7.00;4.95;;;;;;;18.43;44.34;101378.13;5052616;28;20044;-57
2023/03/19 02:14:23;;;;;;;5.97;4.47;;;;;;;18.43;44.42;101372.75;5053638;28;20052;-57
2023/03/19 02:16:52;;;;;;;6.47;4.75;;;;;;;18.43;44.37;101374.56;5052388;28;20052;-57
2023/03/19 02:19:34;;;;;;;7.25;4.93;;;;;;;18.43;44.34;101370.06;5052464;28;20049;-58
2023/03/19 02:22:03;;;;;;;6.93;5.10;;;;;;;18.43;44.35;101363.84;5053489;28;20056;-58
2023/03/19 02:24:44;;;;;;;6.38;4.70;;;;;;;18.43;44.39;101361.16;5052789;28;20403;-47
2023/03/19 02:27:14;;;;;;;;;;;;;;;18.43;44.44;101358.47;5053068;28;20064;-46
2023/03/19 02:29:45;;;;;;;6.07;4.97;;;;;;;18.43;44.25;101358.47;5052558;28;19921;-47
2023/03/19 02:32:15;;;;;;;6.68;4.55;;;;;;;18.42;44.34;101357.63;5053916;28;20057;-46
2023/03/19 02:34:44;;;;;;;5.68;4.72;;;;;;;18.42;44.39;101348.72;5053218;28;20384;-47
2023/03/19 02:37:17;;;;;;;8.45;5.40;;;;;;;18.41;44.46;101358.59;5051750;28;20554;-48
2023/03/19 02:40:07;;;;;;;6.35;5.10;;;;;;;18.41;44.39;101353.22;5053275;28;20068;-46
2023/03/19 02:42:34;;;;;;;5.47;4.63;;;;;;;18.42;44.32;101356.75;5053469;28;20376;-47
2023/03/19 02:45:02;;;;;;;6.53;4.72;;;;;;;18.41;44.43;101358.59;5052404;28;20056;-55
2023/03/19 02:47:29;;;;;;;5.55;4.53;;;;;;;18.42;44.41;101351.41;5053260;28;20467;-56
2023/03/19 02:49:57;;;;;;;5.93;4.63;;;;;;;18.40;44.37;101356.03;5053462;28;20045;-56
2023/03/19 02:52:25;;;;;;;6.45;5.10;;;;;;;18.40;44.47;101356.88;5053397;28;20068;-56
2023/03/19 02:54:52;;;;;;;6.25;5.40;;;;;;;18.40;44.44;101359.56;5051928;28;20096;-56
2023/03/19 02:57:20;;;;;;;6.50;4.85;;;;;;;18.40;44.49;101354.22;5052907;28;20049;-58
2023/03/19 02:59:47;;;;;;;6.45;5.47;;;;;;;18.40;44.33;101353.34;5055014;28;20049;-56
2023/03/19 03:02:14;;;;;;;7.60;5.20;;;;;;;18.40;44.30;101359.56;5056047;28;20060;-56
2023/03/19 03:04:42;;;;;;;7.18;5.35;;;;;;;18.40;44.41;101339.94;5057136;28;20502;-49
2023/03/19 03:07:09;;;;;;;7.70;5.22;;;;;;;18.39;44.45;101349.81;5057212;28;20383;-49
2023/03/19 03:09:37;;;;;;;7.47;5.00;;;;;;;18.39;44.49;101344.47;5057038;28;20040;-49
2023/03/19 03:12:05;;;;;;;6.53;5.07;;;;;;;18.40;44.59;101342.63;5057240;28;20360;-50
2023/03/19 03:14:32;;;;;;;6.40;5.03;;;;;;;18.40;44.59;101356.03;5056047;28;20048;-46
2023/03/19 03:16:59;;;;;;;6.28;5.20;;;;;;;18.40;44.54;101354.22;5056803;28;20060;-47
2023/03/19 03:19:26;;;;;;;7.15;5.28;;;;;;;18.39;44.48;101348.94;5055827;28;20057;-46
2023/03/19 03:21:54;;;;;;;6.28;4.97;;;;;;;18.39;44.63;101349.81;5056711;28;20036;-46
2023/03/19 03:24:21;;;;;;;6.28;4.93;;;;;;;18.40;44.70;101345.31;5055947;28;20475;-47
2023/03/19 03:26:48;;;;;;;7.38;5.45;;;;;;;18.39;44.44;101341.78;5056579;28;20053;-46
2023/03/19 03:29:16;;;;;;;6.70;4.90;;;;;;;18.39;44.67;101338.22;5056639;28;20048;-46
2023/03/19 03:31:43;;;;;;;11.18;5.25;;;;;;;18.39;44.63;101333.75;5056721;28;20503;-45
2023/03/19 03:34:11;;;;;;;5.43;4.53;;;;;;;18.40;44.59;101339.94;5055515;28;20056;-46
2023/03/19 03:36:38;;;;;;;6.95;5.03;;;;;;;18.39;44.63;101336.41;5056255;28;20045;-46
2023/03/19 03:39:05;;;;;;;5.97;5.13;;;;;;;18.39;44.55;101332.84;5055440;28;20052;-49
2023/03/19 03:41:33;;;;;;;7.65;4.90;;;;;;;18.38;44.61;101331.16;5056341;28;20051;-48
2023/03/19 03:44:01;;;;;;;6.57;5.38;;;;;;;18.39;44.57;101338.22;5055709;28;20056;-46
2023/03/19 03:46:32;;;;;;;8.30;5.43;;;;;;;18.39;44.74;101341.78;5054825;28;20045;-49
2023/03/19 03:49:00;;;;;;;6.40;5.30;;;;;;;18.38;44.65;101337.38;5055401;28;20057;-46
2023/03/19 03:51:27;;;;;;;9.18;5.20;;;;;;;18.38;44.70;101342.72;5055127;28;20059;-46
2023/03/19 03:53:55;;;;;;;7.65;5.22;;;;;;;18.38;44.67;101344.56;5054962;28;20056;-49
2023/03/19 03:56:22;;;;;;;6.72;4.80;;;;;;;18.38;44.58;101357.97;5055012;28;20060;-46
2023/03/19 03:58:50;;;;;;;6.55;4.97;;;;;;;18.37;44.72;101367.81;5054696;28;20482;-46
2023/03/19 04:01:18;;;;;;;8.02;5.70;;;;;;;18.38;44.57;101363.31;5054539;28;20053;-45
2023/03/19 04:03:50;;;;;;;6.45;4.95;;;;;;;18.37;44.67;101370.50;5054980;28;20518;-55
2023/03/19 04:06:23;;;;;;;7.38;5.25;;;;;;;18.37;44.62;101364.28;5055164;28;20498;-55
2023/03/19 04:09:10;;;;;;;6.60;5.30;;;;;;;18.37;44.71;101375.03;5055641;28;20525;-56
2023/03/19 04:11:40;;;;;;;5.10;4.60;;;;;;;18.36;44.69;101359.91;5054339;28;20056;-56
2023/03/19 04:14:07;;;;;;;9.80;6.05;;;;;;;18.37;44.71;101377.69;5055744;28;20052;-55
2023/03/19 04:16:37;;;;;;;6.28;5.30;;;;;;;18.36;44.74;101376.00;5054696;28;20063;-56
2023/03/19 04:19:06;;;;;;;8.65;5.32;;;;;;;18.36;44.72;101379.53;5054329;28;20057;-55
2023/03/19 04:21:34;;;;;;;6.13;5.30;;;;;;;18.36;44.58;101379.53;5054611;28;20060;-55
2023/03/19 04:24:01;;;;;;;6.60;5.10;;;;;;;18.36;44.72;101374.16;5054448;28;20045;-56
2023/03/19 04:26:28;;;;;;;7.00;5.10;;;;;;;18.37;44.62;101383.06;5054469;28;20071;-55
2023/03/19 04:28:57;;;;;;;8.07;5.88;;;;;;;18.37;44.69;101383.91;5055555;28;20387;-56
2023/03/19 04:31:25;;;;;;;6.30;4.93;;;;;;;18.37;44.62;101389.28;5054617;28;20045;-56
2023/03/19 04:33:52;;;;;;;6.22;4.75;;;;;;;18.37;44.64;101391.94;5055276;28;20048;-54
2023/03/19 04:36:19;;;;;;;8.57;5.25;;;;;;;18.37;44.75;101388.41;5054375;28;20056;-48
2023/03/19 04:38:47;;;;;;;7.20;5.38;;;;;;;18.37;44.79;101394.63;5054471;28;20052;-47
2023/03/19 04:41:15;;;;;;;6.60;4.95;;;;;;;18.37;44.67;101385.75;5054377;28;20053;-46
2023/03/19 04:43:55;;;;;;;6.38;4.95;;;;;;;18.37;44.83;101389.28;5054080;28;20052;-56
2023/03/19 04:46:23;;;;;;;6.95;5.10;;;;;;;18.36;44.77;101382.22;5054208;28;20057;-56
2023/03/19 04:48:51;;;;;;;9.05;5.35;;;;;;;18.37;44.71;101383.91;5054146;28;20056;-55
2023/03/19 04:51:20;;;;;;;6.88;5.05;;;;;;;18.37;44.70;101383.06;5054093;28;20053;-56
2023/03/19 04:53:49;;;;;;;5.78;5.07;;;;;;;18.36;44.66;101392.94;5053433;28;20049;-55
2023/03/19 04:56:17;;;;;;;5.82;4.97;;;;;;;18.36;44.72;101390.25;5037920;28;20059;-49
2023/03/19 04:58:45;;;;;;;8.50;6.20;;;;;;;18.36;44.70;101381.34;5053883;28;20053;-45
2023/03/19 05:01:12;;;;;;;6.90;5.07;;;;;;;18.36;44.65;101381.34;5053707;28;20053;-46
2023/03/19 05:03:58;;;;;;;6.07;4.80;;;;;;;18.36;44.70;101390.25;5061869;28;20060;-47
2023/03/19 05:06:27;;;;;;;6.53;5.22;;;;;;;18.36;44.74;101382.22;5053874;28;20056;-48
2023/03/19 05:08:54;;;;;;;6.43;5.25;;;;;;;18.36;44.69;101386.72;5053826;28;20053;-47
2023/03/19 05:11:22;;;;;;;5.95;4.88;;;;;;;18.35;44.64;101384.97;5053689;28;20049;-45
2023/03/19 05:14:00;;;;;;;8.88;4.82;;;;;;;18.35;44.70;101390.34;5053806;28;20052;-56
2023/03/19 05:16:34;;;;;;;6.28;5.65;;;;;;;18.34;44.88;101385.97;5053499;28;20041;-56
2023/03/19 05:19:02;;;;;;;6.32;5.18;;;;;;;18.34;44.83;101386.81;5053387;28;20079;-56
2023/03/19 05:21:31;;;;;;;7.20;5.45;;;;;;;18.34;44.71;101386.81;5053208;28;20387;-56
2023/03/19 05:23:59;;;;;;;8.23;5.57;;;;;;;18.35;44.83;101393.03;5053025;28;20041;-55
2023/03/19 05:26:29;;;;;;;12.07;6.22;;;;;;;18.35;44.87;101393.03;5053137;28;20487;-55
2023/03/19 05:29:14;;;;;;;5.88;4.85;;;;;;;18.34;44.84;101388.63;5053681;28;20053;-56
2023/03/19 05:32:01;;;;;;;8.52;5.80;;;;;;;18.34;44.58;101396.69;5053223;28;20060;-55
2023/03/19 05:34:30;;;;;;;7.05;5.03;;;;;;;18.33;44.85;101387.78;5054537;28;20037;-45
2023/03/19 05:36:58;;;;;;;8.48;4.95;;;;;;;18.34;44.89;101396.69;5054420;28;20045;-47
2023/03/19 05:39:25;;;;;;;5.70;4.82;;;;;;;18.34;44.91;101394.00;5054328;28;20056;-47
2023/03/19 05:41:54;;;;;;;9.23;5.65;;;;;;;18.33;44.87;101403.00;5053318;28;20499;-47
2023/03/19 05:44:27;;;;;;;6.72;5.40;;;;;;;18.33;44.83;101398.50;5053800;28;20052;-49
2023/03/19 05:47:01;;;;;;;6.38;4.72;;;;;;;18.33;44.69;101401.19;5053146;28;20048;-46
2023/03/19 05:49:32;;;;;;;6.15;4.95;;;;;;;18.32;44.85;101399.47;5053231;28;20041;-47
2023/03/19 05:51:59;;;;;;;7.60;5.20;;;;;;;18.32;44.91;101401.31;5054120;28;20052;-46
2023/03/19 05:54:30;;;;;;;6.38;4.90;;;;;;;18.32;44.76;101394.13;5052809;28;20049;-46
2023/03/19 05:57:07;;;;;;;6.50;5.10;;;;;;;18.32;44.76;101401.31;5052644;28;20049;-49
2023/03/19 05:59:48;;;;;;;6.28;4.80;;;;;;;18.32;44.85;101409.34;5052694;28;20052;-48
2023/03/19 06:02:29;;;;;;;9.02;4.50;;;;;;;18.31;44.77;101411.19;5060682;28;20060;-47
2023/03/19 06:05:12;;;;;;;5.80;4.68;;;;;;;18.32;45.00;101417.41;5052493;28;20052;-56
2023/03/19 06:07:39;;;;;;;7.20;4.88;;;;;;;18.31;44.93;101421.91;5053655;28;20051;-56
2023/03/19 06:10:13;;;;;;;7.85;5.32;;;;;;;18.31;45.00;101426.38;5052600;28;20075;-56
2023/03/19 06:12:41;;;;;;;6.60;5.45;;;;;;;18.31;44.92;101421.00;5052634;28;20076;-56
2023/03/19 06:15:28;;;;;;;6.25;4.88;;;;;;;18.32;44.82;101433.47;5053312;28;20053;-56
2023/03/19 06:18:20;;;;;;;5.88;5.22;;;;;;;18.31;44.70;101431.75;5052919;28;20053;-56
2023/03/19 06:20:48;;;;;;;5.93;4.50;;;;;;;18.30;44.88;101433.56;5052441;28;20049;-56
2023/03/19 06:23:16;;;;;;;8.60;5.95;;;;;;;18.30;44.90;101436.25;5053521;28;20056;-56
2023/03/19 06:25:44;;;;;;;7.13;5.00;;;;;;;18.29;44.89;101446.13;5052374;28;20056;-56
2023/03/19 06:28:12;;;;;;;7.10;5.00;;;;;;;18.29;44.83;101443.44;5052862;28;20053;-56
2023/03/19 06:30:42;;;;;;;6.75;5.30;;;;;;;18.29;44.76;101445.25;5052664;28;20057;-56
2023/03/19 06:33:32;;;;;;;7.22;5.45;;;;;;;18.29;44.81;101448.78;5054922;28;20051;-56
2023/03/19 06:36:00;;;;;;;7.55;5.45;;;;;;;18.29;44.88;101450.63;5056467;28;20049;-56
2023/03/19 06:38:30;;;;;;;7.53;6.07;;;;;;;18.29;44.88;101446.13;5056511;28;20053;-57
2023/03/19 06:40:58;;;;;;;6.03;5.22;;;;;;;18.29;44.80;101446.13;5057288;28;20041;-56
2023/03/19 06:43:25;;;;;;;7.28;5.00;;;;;;;18.29;44.79;101450.63;5057291;28;20056;-56
2023/03/19 06:45:52;;;;;;;7.43;5.50;;;;;;;18.28;45.00;101444.41;5057369;28;20475;-56
2023/03/19 06:48:20;;;;;;;8.77;5.47;;;;;;;18.29;44.82;101450.63;5057461;28;20064;-56
2023/03/19 06:50:47;;;;;;;6.63;5.55;;;;;;;18.29;44.90;101443.44;5057400;28;20045;-55
2023/03/19 06:53:15;;;;;;;6.70;4.70;;;;;;;18.29;44.93;101445.25;5057106;28;20361;-56
2023/03/19 06:55:45;;;;;;;7.93;5.10;;;;;;;18.29;44.92;101454.16;5057323;28;20048;-55
2023/03/19 06:58:13;;;;;;;6.72;5.38;;;;;;;18.29;44.88;101461.34;5057595;28;20467;-55
2023/03/19 07:00:40;;;;;;;6.10;4.88;;;;;;;18.29;44.80;101467.56;5057253;28;20049;-56
2023/03/19 07:03:08;;;;;;;5.95;5.00;;;;;;;18.28;44.88;101465.84;5057210;28;20479;-56
2023/03/19 07:05:36;;;;;;;7.07;5.35;;;;;;;18.27;45.00;101469.50;5057137;28;20048;-47
2023/03/19 07:08:06;;;;;;;7.05;5.50;;;;;;;18.27;44.96;101464.16;5056936;28;20057;-49
2023/03/19 07:10:33;;;;;;;6.43;5.15;;;;;;;18.28;45.03;101467.69;5056987;28;20041;-48
2023/03/19 07:13:00;;;;;;;7.72;5.40;;;;;;;18.28;44.98;101468.53;5057077;28;20041;-47
2023/03/19 07:15:28;;;;;;;6.57;5.15;;;;;;;18.28;44.89;101476.56;5057092;28;20375;-55
2023/03/19 07:17:56;;;;;;;7.25;5.30;;;;;;;18.27;45.01;101485.59;5057022;28;20483;-56
2023/03/19 07:20:23;;;;;;;8.15;4.75;;;;;;;18.28;45.15;101495.34;5056889;28;20049;-55
2023/03/19 07:22:51;;;;;;;6.82;5.47;;;;;;;18.29;45.00;101507.75;5056851;28;20049;-56
2023/03/19 07:25:18;;;;;;;6.10;5.18;;;;;;;18.28;45.12;101502.53;5056747;28;20646;-45
2023/03/19 07:27:46;;;;;;;5.45;4.85;;;;;;;18.28;45.02;101503.38;5056753;28;20116;-45
2023/03/19 07:30:14;;;;;;;6.22;5.13;;;;;;;18.28;45.08;101508.75;5056781;28;20049;-46
2023/03/19 07:32:42;;;;;;;8.85;6.47;;;;;;;18.28;45.19;101516.78;5056752;28;20041;-46
2023/03/19 07:35:10;;;;;;;6.40;5.47;;;;;;;18.28;45.36;101508.75;5056599;28;20045;-56
2023/03/19 07:37:37;;;;;;;14.43;8.10;;;;;;;18.28;44.34;101507.88;5057576;28;20051;-55
2023/03/19 07:40:06;;;;;;;10.38;8.30;;;;;;;18.26;44.51;101513.34;5064267;28;20051;-53
2023/03/19 07:42:35;;;;;;;6.65;5.93;;;;;;;18.24;45.17;101509.91;5075912;28;20067;-55
2023/03/19 07:45:03;;;;;;;11.13;9.88;;;;;;;18.25;44.37;101510.78;5073419;28;20044;-55
2023/03/19 07:47:31;;;;;;;11.60;10.05;;;;;;;18.24;44.54;101517.09;5066462;28;20037;-56
2023/03/19 07:49:59;;;;;;;9.88;7.30;;;;;;;18.23;44.82;101516.25;5054458;28;20053;-55
2023/03/19 07:52:26;;;;;;;8.75;6.45;;;;;;;18.24;45.30;101528.69;5055969;28;20049;-56
2023/03/19 07:54:54;;;;;;;9.55;5.82;;;;;;;18.24;45.29;101523.31;5073469;28;20063;-50
2023/03/19 07:57:24;;;;;;;8.70;5.65;;;;;;;18.25;45.29;101525.03;5075545;28;20045;-48
2023/03/19 07:59:51;;;;;;;7.60;5.35;;;;;;;18.27;45.30;101530.25;5075544;28;20463;-46
2023/03/19 08:02:19;;;;;;;7.05;4.95;;;;;;;18.28;45.33;101526.66;5075845;28;20461;-45
2023/03/19 08:04:50;;;;;;;11.10;6.15;;;;;;;18.28;45.33;101523.97;5075898;28;20056;-56
2023/03/19 08:07:17;;;;;;;6.55;5.22;;;;;;;18.29;45.48;101526.53;5075425;28;20048;-55
2023/03/19 08:09:44;;;;;;;6.45;5.03;;;;;;;18.31;45.68;101528.22;5075580;28;20044;-55
2023/03/19 08:12:12;;;;;;;9.23;5.95;;;;;;;18.30;45.37;101527.38;5075835;28;20055;-56
2023/03/19 08:14:40;;;;;;;7.15;5.53;;;;;;;18.32;45.44;101524.59;5075228;28;20044;-55
2023/03/19 08:17:07;;;;;;;6.07;5.22;;;;;;;18.32;45.62;101527.28;5075406;28;20479;-54
2023/03/19 08:19:35;;;;;;;9.43;6.25;;;;;;;18.32;45.34;101520.09;5075712;28;20044;-55
2023/03/19 08:22:02;;;;;;;10.30;5.95;;;;;;;18.33;45.12;101527.16;5075359;28;20107;-55
2023/03/19 08:24:30;;;;;;;7.20;5.65;;;;;;;18.33;45.26;101532.53;5075275;28;20045;-54
2023/03/19 08:26:57;;;;;;;5.95;5.10;;;;;;;18.34;45.19;101528.88;5075120;28;20068;-53
2023/03/19 08:29:26;;;;;;;7.93;5.47;;;;;;;18.35;45.14;101519.00;5075339;28;20044;-54
2023/03/19 08:31:54;;;;;;;7.03;5.22;;;;;;;18.36;44.91;101523.44;5075063;28;20389;-55
2023/03/19 08:34:22;;;;;;;8.63;6.05;;;;;;;18.36;44.91;101523.44;5055110;28;20045;-54
2023/03/19 08:36:49;;;;;;;7.65;6.07;;;;;;;18.37;44.77;101525.13;5054779;28;20255;-54
2023/03/19 08:39:17;;;;;;;9.90;6.40;;;;;;;18.36;44.50;101521.59;5055230;28;20041;-54
2023/03/19 08:41:44;;;;;;;8.05;6.10;;;;;;;18.38;44.73;101529.53;5055148;28;20044;-55
2023/03/19 08:44:11;;;;;;;10.95;5.80;;;;;;;18.37;44.75;101533.19;5054954;28;20052;-58
2023/03/19 08:46:39;;;;;;;7.53;6.47;;;;;;;18.38;44.68;101533.06;5055047;28;20045;-56
2023/03/19 08:49:06;;;;;;;7.13;5.88;;;;;;;18.39;45.27;101536.59;5053837;28;20048;-54
2023/03/19 08:51:34;;;;;;;9.75;6.55;;;;;;;18.39;44.73;101531.22;5053748;28;20384;-51
2023/03/19 08:54:01;;;;;;;6.30;5.30;;;;;;;18.40;44.60;101541.00;5054935;28;20072;-56
2023/03/19 08:56:29;;;;;;;8.15;5.88;;;;;;;18.40;44.65;101533.81;5054573;28;20045;-54
2023/03/19 08:58:56;;;;;;;6.75;5.80;;;;;;;18.40;44.60;101544.53;5054938;28;20431;-54
2023/03/19 09:01:24;;;;;;;7.82;6.22;;;;;;;18.40;44.46;101543.69;5054361;28;20051;-56
2023/03/19 09:03:51;;;;;;;6.93;5.57;;;;;;;18.40;44.54;101538.31;5054511;28;20049;-45
2023/03/19 09:06:18;;;;;;;6.63;5.80;;;;;;;18.42;44.63;101542.59;5054397;28;20056;-46
2023/03/19 09:08:46;;;;;;;5.85;4.60;;;;;;;18.42;45.20;101544.41;5054438;28;20056;-47
2023/03/19 09:11:15;;;;;;;7.40;6.57;;;;;;;18.43;44.69;101540.78;5054362;28;20367;-46
2023/03/19 09:13:42;;;;;;;7.55;6.10;;;;;;;18.43;44.56;101535.41;5054710;28;20045;-46
2023/03/19 09:16:10;;;;;;;8.90;5.90;;;;;;;18.45;44.71;101538.84;5054313;28;20049;-55
2023/03/19 09:18:37;;;;;;;9.82;6.00;;;;;;;18.43;44.59;101535.41;5053875;28;20052;-56
2023/03/19 09:21:05;;;;;;;6.93;5.97;;;;;;;18.44;44.69;101545.19;5054649;28;20037;-55
2023/03/19 09:23:32;;;;;;;8.32;5.40;;;;;;;18.44;44.72;101546.03;5071781;28;20056;-56
2023/03/19 09:25:59;;;;;;;7.60;5.93;;;;;;;18.44;44.65;101540.69;5074112;28;20052;-46
2023/03/19 09:28:27;;;;;;;7.25;5.30;;;;;;;18.44;44.72;101543.34;5074373;28;20049;-47
2023/03/19 09:30:54;;;;;;;6.10;4.88;;;;;;;18.45;44.94;101542.38;5073993;28;20048;-46
2023/03/19 09:33:22;;;;;;;8.27;5.40;;;;;;;18.45;44.79;101541.53;5061815;28;20056;-51
2023/03/19 09:35:51;;;;;;;7.55;4.70;;;;;;;18.45;44.86;101537.03;5053905;28;20052;-55
2023/03/19 09:38:20;;;;;;;8.00;5.20;;;;;;;18.44;45.00;101537.16;5054015;28;20049;-56
2023/03/19 09:41:01;;;;;;;5.75;4.78;;;;;;;18.46;45.33;101543.25;5053834;28;20119;-55
2023/03/19 09:43:44;;;;;;;13.63;4.65;;;;;;;18.45;45.46;101541.53;5053827;28;20045;-55
2023/03/19 09:46:21;;;;;;;5.37;3.93;;;;;;;18.46;45.58;101544.09;5054065;28;20471;-55
2023/03/19 09:49:02;;;;;;;5.93;4.78;;;;;;;18.46;45.49;101533.38;5053572;28;20045;-55
2023/03/19 09:51:40;;;;;;;7.60;4.18;;;;;;;18.46;45.63;101536.03;5052221;28;20064;-56
2023/03/19 09:54:19;;;;;;;6.43;4.93;;;;;;;18.47;45.85;101537.78;5053991;28;20142;-48
2023/03/19 09:56:46;;;;;;;8.77;4.40;;;;;;;18.48;46.03;101536.81;5053531;28;20045;-46
2023/03/19 09:59:13;;;;;;;5.90;4.13;;;;;;;18.48;46.15;101518.03;5053516;28;20044;-47
2023/03/19 10:01:46;;;;;;;6.10;4.45;;;;;;;18.48;46.11;101517.19;5053639;28;20131;-46
2023/03/19 10:04:41;;;;;;;8.73;5.05;;;;;;;18.50;46.04;101528.66;5053677;28;20067;-48
2023/03/19 10:07:33;;;;;;;5.82;4.20;;;;;;;18.49;46.11;101519.75;5053406;28;20048;-48
2023/03/19 10:10:10;;;;;;;11.73;5.00;;;;;;;18.50;46.39;101523.28;5054676;28;20059;-46
2023/03/19 10:12:43;;;;;;;10.65;4.63;;;;;;;18.52;46.49;101529.41;5062344;28;20055;-48
2023/03/19 10:15:31;;;;;;;10.48;4.80;;;;;;;18.53;46.70;101531.13;5072780;28;20479;-48
2023/03/19 10:18:20;;;;;;;11.35;5.50;;;;;;;18.54;46.62;101524.78;5070970;28;20040;-49
2023/03/19 10:20:53;;;;;;;9.50;4.93;;;;;;;18.54;47.16;101532.81;5073363;28;20071;-51
2023/03/19 10:23:39;;;;;;;6.57;4.32;;;;;;;18.54;47.06;101531.00;5073457;28;20048;-48
2023/03/19 10:26:17;;;;;;;10.05;5.25;;;;;;;18.56;47.34;101530.06;5073362;28;20045;-56
2023/03/19 10:28:56;;;;;;;11.77;5.10;;;;;;;18.57;46.91;101529.94;5072407;28;20052;-57
2023/03/19 10:31:29;;;;;;;13.55;6.07;;;;;;;18.57;47.12;101529.06;5063046;28;20052;-56
2023/03/19 10:34:49;;;;;;;13.00;6.20;;;;;;;18.56;46.90;101528.22;5054886;28;20057;-51
2023/03/19 10:37:22;;;;;;;15.60;5.88;;;;;;;18.58;47.23;101530.78;5070436;28;20064;-56
2023/03/19 10:39:54;;;;;;;12.35;7.00;;;;;;;18.58;46.32;101522.75;5072845;28;20051;-50
2023/03/19 10:42:40;;;;;;;8.85;6.20;;;;;;;18.57;46.92;101521.88;5073059;28;20053;-53
2023/03/19 10:45:27;;;;;;;9.90;6.05;;;;;;;18.58;46.57;101512.88;5071816;28;20363;-49
2023/03/19 10:47:56;;;;;;;14.05;6.00;;;;;;;18.59;47.19;101514.56;5073369;28;20037;-49
2023/03/19 10:50:31;;;;;;;7.57;4.82;;;;;;;18.64;47.47;101520.50;5070361;28;20040;-50
2023/03/19 10:53:14;;;;;;;13.05;7.18;;;;;;;18.72;45.66;101510.09;5069462;28;20699;-53
2023/03/19 10:56:05;;;;;;;17.05;10.77;;;;;;;18.70;45.25;101509.34;5072029;28;20426;-57
2023/03/19 10:58:36;;;;;;;9.10;6.57;;;;;;;18.70;45.83;101508.47;5052596;28;20052;-56
2023/03/19 11:01:10;;;;;;;9.73;5.70;;;;;;;18.69;46.12;101512.97;5052500;28;20061;-56
2023/03/19 11:03:49;;;;;;;10.13;5.38;;;;;;;18.68;46.23;101502.34;5055519;28;20055;-57
2023/03/19 11:06:30;;;;;;;8.05;5.25;;;;;;;18.66;46.14;101502.44;5061323;28;20056;-50
2023/03/19 11:09:03;;;;;;;9.35;5.13;;;;;;;18.64;46.18;101495.50;5083787;28;20044;-48
2023/03/19 11:11:52;;;;;;;10.27;5.60;;;;;;;18.62;46.09;101495.59;5080143;28;20098;-47
2023/03/19 11:14:24;;;;;;;8.20;4.47;;;;;;;18.63;46.03;101508.03;5059564;28;20044;-52
2023/03/19 11:17:35;;;;;;;6.55;4.47;;;;;;;18.63;45.98;101496.44;5084415;28;20044;-57
2023/03/19 11:20:32;;;;;;;7.68;4.30;;;;;;;18.63;46.09;101491.94;5059670;28;20064;-56
2023/03/19 11:23:02;;;;;;;7.65;4.18;;;;;;;18.63;46.01;101491.94;5086729;28;20044;-56
2023/03/19 11:25:42;;;;;;;5.53;4.30;;;;;;;18.63;46.12;101494.63;5079425;28;20057;-56
2023/03/19 11:28:21;;;;;;;5.78;4.32;;;;;;;18.62;46.07;101492.91;5064434;28;20051;-56
2023/03/19 11:31:14;;;;;;;8.07;3.83;;;;;;;18.62;46.03;101484.00;5096145;28;20048;-56
2023/03/19 11:33:57;;;;;;;7.13;4.95;;;;;;;18.62;46.09;101484.84;5079112;28;20301;-57
2023/03/19 11:36:39;;;;;;;6.43;4.72;;;;;;;18.62;45.96;101478.66;5055734;28;20045;-56
2023/03/19 11:39:44;;;;;;;8.43;4.65;;;;;;;18.63;46.00;101480.34;5076789;28;20044;-56
2023/03/19 11:42:15;;;;;;;5.88;4.35;;;;;;;18.63;46.27;101480.34;5068396;28;20094;-55
2023/03/19 11:45:01;;;;;;;9.02;4.50;;;;;;;18.62;46.20;101474.13;5074229;28;20048;-49